Time;durP1;ratioP1;P1;durP2;ratioP2;P2;SDS_P1;SDS_P2;PMS_P1;PMS_P2;Temp;Humidity;BMP_temperature;BMP_pressure;BME280_temperature;BME280_humidity;BME280_pressure;Samples;Min_cycle;Max_cycle;Signal;HPM_P1;HPM_P2
2022/05/30 00:01:15;;;;;;;7.72;1.45;;;8.70;99.90;;;;;;5093357;28;20044;-75
2022/05/30 00:03:41;;;;;;;14.40;1.40;;;8.70;99.90;;;;;;5075300;28;20040;-75
2022/05/30 00:06:11;;;;;;;12.10;1.30;;;8.70;99.90;;;;;;5091942;28;20085;-75
2022/05/30 00:08:37;;;;;;;8.10;0.80;;;8.70;99.90;;;;;;5091795;28;20475;-76
2022/05/30 00:11:04;;;;;;;8.43;1.02;;;8.60;99.90;;;;;;5075270;28;20051;-76
2022/05/30 00:13:31;;;;;;;7.10;1.10;;;8.60;99.90;;;;;;5091570;28;20040;-75
2022/05/30 00:15:57;;;;;;;11.20;1.50;;;8.60;99.90;;;;;;5091141;28;20178;-75
2022/05/30 00:18:23;;;;;;;12.02;1.65;;;8.50;99.90;;;;;;5092383;28;20059;-76
2022/05/30 00:20:49;;;;;;;10.38;1.23;;;8.50;99.90;;;;;;5093253;28;20368;-75
2022/05/30 00:23:15;;;;;;;7.00;0.90;;;8.50;99.90;;;;;;5092523;28;20052;-75
2022/05/30 00:25:44;;;;;;;12.20;1.30;;;8.40;99.90;;;;;;5091326;28;20040;-74
2022/05/30 00:28:10;;;;;;;9.48;0.80;;;8.40;99.90;;;;;;5091422;28;20058;-75
2022/05/30 00:30:36;;;;;;;6.83;1.47;;;8.30;99.90;;;;;;5091686;28;20450;-75
2022/05/30 00:33:02;;;;;;;6.13;0.80;;;8.20;99.90;;;;;;5075441;28;20051;-76
2022/05/30 00:35:29;;;;;;;7.75;0.73;;;8.20;99.90;;;;;;5092656;28;20040;-75
2022/05/30 00:37:56;;;;;;;7.45;0.85;;;8.10;99.90;;;;;;5091281;28;20062;-74
2022/05/30 00:40:22;;;;;;;7.28;0.85;;;8.10;99.90;;;;;;5093029;28;20055;-75
2022/05/30 00:42:48;;;;;;;10.90;0.80;;;8.00;99.90;;;;;;5093115;28;20048;-75
2022/05/30 00:45:14;;;;;;;8.32;0.80;;;8.00;99.90;;;;;;5093490;28;20036;-75
2022/05/30 00:47:40;;;;;;;10.02;0.90;;;7.90;99.90;;;;;;5092593;28;20044;-74
2022/05/30 00:50:07;;;;;;;5.40;1.23;;;7.80;99.90;;;;;;5094906;28;20059;-77
2022/05/30 00:52:38;;;;;;;12.77;1.00;;;7.80;99.90;;;;;;5097381;28;20052;-75
2022/05/30 00:55:08;;;;;;;7.93;0.93;;;7.80;99.90;;;;;;5096012;28;20123;-77
2022/05/30 00:57:35;;;;;;;10.57;1.80;;;7.70;99.90;;;;;;5096886;28;20072;-76
2022/05/30 01:00:09;;;;;;;4.63;0.93;;;7.70;99.90;;;;;;5078958;28;20396;-75
2022/05/30 01:02:38;;;;;;;14.85;1.20;;;7.60;99.90;;;;;;5095518;28;20063;-75
2022/05/30 01:07:50;;;;;;;6.38;0.82;;;7.50;99.90;;;;;;5096014;28;20051;-75
2022/05/30 01:10:19;;;;;;;7.15;1.17;;;7.40;99.90;;;;;;5095211;28;20044;-75
2022/05/30 01:12:51;;;;;;;8.18;1.05;;;7.40;99.90;;;;;;5096215;28;20052;-75
2022/05/30 01:15:20;;;;;;;7.28;1.05;;;7.30;99.90;;;;;;5096725;28;20151;-75
2022/05/30 01:18:05;;;;;;;7.30;1.13;;;7.30;99.90;;;;;;5096006;28;20359;-76
2022/05/30 01:20:42;;;;;;;7.63;0.82;;;7.20;99.90;;;;;;5094861;28;20056;-75
2022/05/30 01:23:28;;;;;;;;;;;7.20;99.90;;;;;;5095976;28;20083;-76
2022/05/30 01:26:09;;;;;;;10.63;1.80;;;7.30;99.90;;;;;;5096132;28;20306;-75
2022/05/30 01:29:02;;;;;;;9.00;1.50;;;7.20;99.90;;;;;;5096126;28;20371;-76
2022/05/30 01:31:30;;;;;;;11.23;1.50;;;7.30;99.90;;;;;;5097123;28;20056;-76
2022/05/30 01:33:55;;;;;;;;;;;7.20;99.90;;;;;;5095699;28;20055;-73
2022/05/30 01:36:23;;;;;;;15.05;1.48;;;7.20;99.90;;;;;;5096928;28;20243;-75
2022/05/30 01:38:49;;;;;;;10.10;1.50;;;7.10;99.90;;;;;;5096161;28;20051;-76
2022/05/30 01:41:15;;;;;;;10.63;1.80;;;7.10;99.90;;;;;;5079706;28;20044;-75
2022/05/30 01:43:41;;;;;;;6.45;1.35;;;7.00;99.90;;;;;;5097234;28;20052;-74
2022/05/30 01:46:09;;;;;;;9.40;1.90;;;6.90;99.90;;;;;;5079891;28;20066;-76
2022/05/30 01:48:35;;;;;;;9.40;2.00;;;6.80;99.90;;;;;;5098867;28;20127;-74
2022/05/30 01:51:01;;;;;;;9.05;1.80;;;6.70;99.90;;;;;;5097397;28;20102;-74
2022/05/30 01:53:28;;;;;;;7.88;1.42;;;6.60;99.90;;;;;;5096400;28;20478;-73
2022/05/30 01:55:54;;;;;;;10.20;1.67;;;6.60;99.90;;;;;;5097592;28;20177;-76
2022/05/30 01:58:19;;;;;;;7.70;1.67;;;6.50;99.90;;;;;;5115072;28;20059;-75
2022/05/30 02:00:45;;;;;;;9.48;1.85;;;6.50;99.90;;;;;;5081031;28;20048;-75
2022/05/30 02:03:11;;;;;;;6.15;1.48;;;6.40;99.90;;;;;;5097025;28;20048;-74
2022/05/30 02:05:37;;;;;;;11.48;1.83;;;6.40;99.90;;;;;;5097172;28;20040;-75
2022/05/30 02:08:02;;;;;;;11.63;1.85;;;6.20;99.90;;;;;;5096139;28;20048;-74
2022/05/30 02:10:32;;;;;;;7.13;1.70;;;6.20;99.90;;;;;;5096304;28;20092;-74
2022/05/30 02:12:57;;;;;;;5.35;1.45;;;6.20;99.90;;;;;;5095808;28;20054;-73
2022/05/30 02:15:23;;;;;;;7.93;1.90;;;6.20;99.90;;;;;;5061110;28;20056;-75
2022/05/30 02:17:49;;;;;;;8.10;1.50;;;6.10;99.90;;;;;;5098422;28;20055;-74
2022/05/30 02:20:16;;;;;;;6.07;1.75;;;6.10;99.90;;;;;;5097871;28;20491;-77
2022/05/30 02:22:42;;;;;;;6.20;1.58;;;6.10;99.90;;;;;;5101019;28;20052;-74
2022/05/30 02:25:08;;;;;;;10.45;2.13;;;6.10;99.90;;;;;;5098375;28;20423;-75
2022/05/30 02:27:34;;;;;;;7.70;1.60;;;6.10;99.90;;;;;;5098020;28;20051;-76
2022/05/30 02:29:59;;;;;;;9.48;2.20;;;6.10;99.90;;;;;;5097274;28;20054;-76
2022/05/30 02:32:26;;;;;;;11.77;2.28;;;6.20;99.90;;;;;;5097111;28;20069;-74
2022/05/30 02:37:36;;;;;;;7.90;1.98;;;6.20;99.90;;;;;;5094928;28;20048;-75
2022/05/30 02:40:02;;;;;;;9.77;2.17;;;6.20;99.90;;;;;;5093155;28;20055;-74
2022/05/30 02:42:27;;;;;;;10.38;2.30;;;6.20;99.90;;;;;;5093959;28;20048;-76
2022/05/30 02:44:53;;;;;;;8.82;2.28;;;6.30;99.90;;;;;;5095402;28;20040;-75
2022/05/30 02:47:19;;;;;;;8.45;2.15;;;6.30;99.90;;;;;;5093920;28;20262;-77
2022/05/30 02:49:45;;;;;;;11.70;2.28;;;6.40;99.90;;;;;;5094075;28;20070;-75
2022/05/30 02:52:11;;;;;;;11.68;2.50;;;6.40;99.90;;;;;;5093630;28;20040;-76
2022/05/30 02:54:36;;;;;;;8.90;2.38;;;6.50;99.90;;;;;;5092919;28;20095;-75
2022/05/30 02:57:03;;;;;;;14.00;2.60;;;6.50;99.90;;;;;;5092896;28;20050;-76
2022/05/30 02:59:29;;;;;;;12.75;2.55;;;6.50;99.90;;;;;;5058488;28;20181;-76
2022/05/30 03:01:55;;;;;;;12.43;2.80;;;6.50;99.90;;;;;;5076838;28;20228;-75
2022/05/30 03:04:21;;;;;;;9.35;2.30;;;6.50;99.90;;;;;;5094536;28;20044;-77
2022/05/30 03:06:47;;;;;;;9.40;2.45;;;6.50;99.90;;;;;;5075898;28;20063;-76
2022/05/30 03:09:14;;;;;;;15.18;4.28;;;6.50;99.90;;;;;;5093788;28;20051;-75
2022/05/30 03:11:40;;;;;;;11.73;2.22;;;6.50;99.90;;;;;;5093961;28;20044;-75
2022/05/30 03:14:06;;;;;;;15.23;2.13;;;6.50;99.90;;;;;;5093057;28;20450;-76
2022/05/30 03:16:32;;;;;;;7.47;2.25;;;6.50;99.90;;;;;;5092234;28;20476;-76
2022/05/30 03:18:57;;;;;;;10.07;2.15;;;6.50;99.90;;;;;;5092173;28;20052;-75
2022/05/30 03:21:23;;;;;;;14.20;2.50;;;6.40;99.90;;;;;;5092664;28;20040;-76
2022/05/30 03:23:50;;;;;;;7.20;2.13;;;6.40;99.90;;;;;;5093363;28;20510;-76
2022/05/30 03:26:16;;;;;;;9.65;2.15;;;6.30;99.90;;;;;;5092533;28;20049;-76
2022/05/30 03:28:42;;;;;;;11.50;2.75;;;6.20;99.90;;;;;;5092919;28;20048;-76
2022/05/30 03:31:09;;;;;;;11.27;2.80;;;6.20;99.90;;;;;;5092123;28;20044;-76
2022/05/30 03:33:36;;;;;;;6.90;2.42;;;6.10;99.90;;;;;;5075020;28;20055;-76
2022/05/30 03:36:03;;;;;;;12.23;2.10;;;6.00;99.90;;;;;;5091871;28;20210;-76
2022/05/30 03:38:29;;;;;;;9.73;2.28;;;6.00;99.90;;;;;;5092721;28;20480;-75
2022/05/30 03:40:54;;;;;;;11.23;2.42;;;5.90;99.90;;;;;;5091549;28;20044;-75
2022/05/30 03:43:21;;;;;;;8.48;2.25;;;5.90;99.90;;;;;;5091795;28;20122;-75
2022/05/30 03:45:47;;;;;;;11.73;2.03;;;5.90;99.90;;;;;;5092654;28;20044;-76
2022/05/30 03:48:20;;;;;;;7.25;2.10;;;5.80;99.90;;;;;;5093271;28;20086;-76
2022/05/30 03:50:48;;;;;;;7.35;2.00;;;5.80;99.90;;;;;;5092900;28;20093;-75
2022/05/30 03:53:15;;;;;;;8.23;2.33;;;5.80;99.90;;;;;;5093572;28;20066;-75
2022/05/30 03:55:43;;;;;;;7.65;2.40;;;5.80;99.90;;;;;;5094037;28;20161;-76
2022/05/30 03:58:11;;;;;;;10.88;2.35;;;5.80;99.90;;;;;;5091911;28;20048;-75
2022/05/30 04:00:38;;;;;;;7.80;2.40;;;5.80;99.90;;;;;;5091467;28;20055;-75
2022/05/30 04:03:05;;;;;;;7.03;2.20;;;5.80;99.90;;;;;;5091374;28;20108;-75
2022/05/30 04:05:31;;;;;;;12.27;2.95;;;5.80;99.90;;;;;;5092591;28;20052;-76
2022/05/30 04:07:59;;;;;;;15.00;2.80;;;5.80;99.90;;;;;;5092465;28;20113;-74
2022/05/30 04:10:26;;;;;;;13.18;2.95;;;5.80;99.90;;;;;;5074670;28;20136;-75
2022/05/30 04:13:03;;;;;;;11.13;2.63;;;5.80;99.90;;;;;;5091116;28;20403;-75
2022/05/30 04:15:29;;;;;;;11.10;2.47;;;5.80;99.90;;;;;;5090775;28;20094;-75
2022/05/30 04:17:55;;;;;;;10.85;2.20;;;5.90;99.90;;;;;;5092325;28;20135;-76
2022/05/30 04:20:21;;;;;;;11.25;3.10;;;6.00;99.90;;;;;;5107973;28;20043;-75
2022/05/30 04:22:46;;;;;;;10.85;2.17;;;6.10;99.90;;;;;;5091305;28;20047;-76
2022/05/30 04:25:12;;;;;;;13.32;2.45;;;6.10;99.90;;;;;;5095467;28;20048;-76
2022/05/30 04:27:38;;;;;;;7.00;2.58;;;6.30;99.90;;;;;;5096152;28;20044;-76
2022/05/30 04:30:07;;;;;;;7.75;2.30;;;6.40;99.90;;;;;;5094946;28;20131;-75
2022/05/30 04:32:34;;;;;;;10.30;2.65;;;6.50;99.90;;;;;;5112646;28;20093;-76
2022/05/30 04:35:01;;;;;;;9.88;2.63;;;6.70;99.90;;;;;;5095013;28;20044;-76
2022/05/30 04:37:30;;;;;;;10.07;2.33;;;6.80;99.90;;;;;;5095128;28;20044;-74
2022/05/30 04:39:55;;;;;;;11.20;2.45;;;6.90;99.90;;;;;;5095121;28;20048;-75
2022/05/30 04:42:22;;;;;;;10.13;2.25;;;7.00;99.90;;;;;;5095958;28;20378;-77
2022/05/30 04:44:47;;;;;;;7.43;2.08;;;7.10;99.90;;;;;;5096744;28;20040;-77
2022/05/30 04:47:13;;;;;;;7.75;2.33;;;7.20;99.90;;;;;;5078565;28;20198;-76
2022/05/30 04:49:39;;;;;;;13.82;3.22;;;7.30;99.90;;;;;;5094588;28;20442;-77
2022/05/30 04:52:06;;;;;;;15.23;3.25;;;7.40;99.90;;;;;;5094811;28;20046;-76
2022/05/30 04:54:35;;;;;;;9.18;2.13;;;7.50;99.90;;;;;;5094695;28;20371;-76
2022/05/30 04:57:01;;;;;;;11.82;2.50;;;7.50;99.90;;;;;;5094232;28;20127;-74
2022/05/30 04:59:27;;;;;;;8.32;2.40;;;7.60;99.90;;;;;;5095376;28;20043;-74
2022/05/30 05:01:55;;;;;;;8.15;1.90;;;7.70;99.90;;;;;;5096186;28;20043;-75
2022/05/30 05:04:20;;;;;;;8.35;2.45;;;7.80;99.90;;;;;;5095650;28;20433;-75
2022/05/30 05:06:46;;;;;;;12.75;2.65;;;7.90;99.90;;;;;;5095519;28;20048;-77
2022/05/30 05:09:18;;;;;;;7.20;2.03;;;8.00;99.90;;;;;;5077217;28;20048;-76
2022/05/30 05:11:45;;;;;;;8.38;2.20;;;8.00;99.90;;;;;;5095399;28;20127;-77
2022/05/30 05:14:12;;;;;;;5.40;2.08;;;8.00;99.90;;;;;;5093967;28;20396;-76
2022/05/30 05:16:39;;;;;;;10.77;2.75;;;8.10;99.90;;;;;;5094741;28;20413;-75
2022/05/30 05:19:05;;;;;;;9.90;2.50;;;8.00;99.90;;;;;;5077864;28;20108;-75
2022/05/30 05:21:36;;;;;;;8.60;2.10;;;7.90;99.90;;;;;;5095099;28;20048;-75
2022/05/30 05:24:05;;;;;;;13.00;2.42;;;7.90;99.90;;;;;;5094575;28;20502;-75
2022/05/30 05:26:31;;;;;;;10.20;2.60;;;7.80;99.90;;;;;;5094899;28;20523;-76
2022/05/30 05:28:57;;;;;;;8.90;2.78;;;7.70;99.90;;;;;;5094515;28;20133;-76
2022/05/30 05:31:33;;;;;;;9.23;2.60;;;7.70;99.90;;;;;;5093830;28;20044;-76
2022/05/30 05:34:00;;;;;;;6.63;2.25;;;7.70;99.90;;;;;;5095268;28;20067;-76
2022/05/30 05:36:29;;;;;;;9.13;1.95;;;7.70;99.90;;;;;;5110650;28;20048;-76
2022/05/30 05:38:55;;;;;;;15.68;2.42;;;7.80;99.90;;;;;;5093483;28;20055;-77
2022/05/30 05:41:21;;;;;;;7.22;2.03;;;8.00;99.90;;;;;;5093914;28;20056;-76
2022/05/30 05:43:47;;;;;;;6.30;2.05;;;8.00;99.90;;;;;;5094656;28;20176;-76
2022/05/30 05:46:20;;;;;;;9.68;1.80;;;8.20;99.90;;;;;;5094851;28;20044;-75
2022/05/30 05:48:45;;;;;;;6.38;1.88;;;8.40;99.90;;;;;;5094526;28;20040;-78
2022/05/30 05:51:13;;;;;;;7.47;2.05;;;8.50;99.90;;;;;;5093539;28;20059;-77
2022/05/30 05:53:40;;;;;;;5.53;1.52;;;8.60;99.90;;;;;;5076538;28;20431;-76
2022/05/30 05:56:27;;;;;;;6.65;1.65;;;8.80;99.90;;;;;;5094332;28;20472;-75
2022/05/30 05:58:53;;;;;;;;;;;8.80;99.90;;;;;;5111315;28;20102;-77
2022/05/30 06:01:22;;;;;;;6.90;1.60;;;8.90;99.90;;;;;;5093055;28;19931;-75
2022/05/30 06:03:51;;;;;;;4.18;1.08;;;9.10;99.90;;;;;;5094250;28;20058;-76
2022/05/30 06:06:16;;;;;;;8.65;1.25;;;9.30;99.90;;;;;;5076352;28;20464;-79
2022/05/30 06:08:42;;;;;;;8.27;1.35;;;9.40;99.90;;;;;;5075829;28;20123;-76
2022/05/30 06:11:08;;;;;;;8.32;1.40;;;9.60;99.90;;;;;;5092759;28;20088;-75
2022/05/30 06:13:52;;;;;;;8.73;1.52;;;9.70;99.90;;;;;;5093040;28;20051;-75
2022/05/30 06:16:21;;;;;;;4.78;1.20;;;9.90;99.90;;;;;;5109645;28;20411;-75
2022/05/30 06:18:49;;;;;;;4.55;1.00;;;9.90;99.90;;;;;;5093226;28;20051;-75
2022/05/30 06:21:15;;;;;;;;;;;10.00;99.90;;;;;;5077016;28;20475;-75
2022/05/30 06:23:41;;;;;;;4.45;0.75;;;10.10;99.90;;;;;;5092777;28;19920;-76
2022/05/30 06:26:08;;;;;;;6.65;0.90;;;10.20;99.90;;;;;;5076240;28;20136;-75
2022/05/30 06:28:36;;;;;;;3.80;0.80;;;10.10;99.90;;;;;;5092745;28;20131;-76
2022/05/30 06:31:10;;;;;;;4.25;1.00;;;10.10;99.90;;;;;;5076300;28;20044;-76
2022/05/30 06:33:36;;;;;;;3.90;0.93;;;10.10;99.90;;;;;;5092457;28;20130;-75
2022/05/30 06:36:04;;;;;;;6.10;0.80;;;10.20;99.90;;;;;;5092953;28;20486;-77
2022/05/30 06:38:31;;;;;;;4.05;0.82;;;10.30;99.90;;;;;;5110013;28;20056;-77
2022/05/30 06:40:57;;;;;;;5.22;0.82;;;10.40;99.90;;;;;;5075614;28;20052;-76
2022/05/30 06:43:22;;;;;;;4.85;0.90;;;10.60;99.90;;;;;;5092433;28;20458;-76
2022/05/30 06:45:48;;;;;;;4.10;0.50;;;10.70;99.90;;;;;;5092441;28;20400;-76
2022/05/30 06:48:15;;;;;;;3.40;0.47;;;10.90;99.90;;;;;;5058917;28;20040;-77
2022/05/30 06:50:42;;;;;;;6.75;0.43;;;11.00;99.90;;;;;;5093054;28;20484;-76
2022/05/30 06:53:07;;;;;;;;;;;11.10;99.90;;;;;;5092500;28;20044;-77
2022/05/30 06:55:33;;;;;;;2.63;0.40;;;11.20;99.90;;;;;;5093288;28;19927;-75
2022/05/30 06:58:14;;;;;;;3.38;0.30;;;11.20;99.90;;;;;;5091878;28;20067;-77
2022/05/30 07:00:44;;;;;;;2.92;0.30;;;11.20;99.90;;;;;;5092346;28;20044;-77
2022/05/30 07:03:15;;;;;;;3.55;0.63;;;11.40;99.90;;;;;;5092152;28;20457;-75
2022/05/30 07:05:43;;;;;;;3.20;0.32;;;11.30;99.90;;;;;;5076333;28;20048;-75
2022/05/30 07:08:12;;;;;;;2.15;0.35;;;11.50;99.90;;;;;;5093404;28;20230;-76
2022/05/30 07:10:39;;;;;;;2.70;0.40;;;11.70;99.90;;;;;;5091863;28;20134;-76
2022/05/30 07:13:05;;;;;;;8.20;0.88;;;12.00;99.90;;;;;;5074911;28;20052;-75
2022/05/30 07:15:35;;;;;;;3.58;0.60;;;12.10;99.90;;;;;;5075048;28;20397;-76
2022/05/30 07:18:13;;;;;;;2.20;0.45;;;12.40;99.90;;;;;;5093399;28;20124;-77
2022/05/30 07:20:40;;;;;;;4.43;0.50;;;12.60;99.90;;;;;;5093141;28;20098;-77
2022/05/30 07:23:08;;;;;;;3.58;0.50;;;12.80;99.90;;;;;;5091310;28;20052;-75
2022/05/30 07:25:35;;;;;;;5.55;0.50;;;13.00;99.90;;;;;;5092066;28;20048;-75
2022/05/30 07:28:03;;;;;;;5.57;0.50;;;13.20;99.90;;;;;;5091773;28;20137;-75
2022/05/30 07:30:28;;;;;;;;;;;13.30;99.90;;;;;;5092877;28;20043;-77
2022/05/30 07:32:57;;;;;;;4.83;0.40;;;13.20;99.90;;;;;;5092082;28;19920;-76
2022/05/30 07:35:23;;;;;;;2.78;0.40;;;13.40;99.90;;;;;;5092881;28;20052;-78
2022/05/30 07:37:50;;;;;;;2.00;0.30;;;13.60;99.90;;;;;;5094983;28;20048;-75
2022/05/30 07:40:16;;;;;;;3.38;0.30;;;13.50;99.90;;;;;;5094021;28;20082;-75
2022/05/30 07:42:42;;;;;;;3.88;0.30;;;13.50;99.90;;;;;;5092082;28;20503;-76
2022/05/30 07:45:12;;;;;;;2.45;0.20;;;;;;;;;;5075831;28;20051;-75
2022/05/30 07:47:38;;;;;;;5.53;0.50;;;13.40;99.90;;;;;;5093114;28;20040;-77
2022/05/30 07:50:05;;;;;;;4.00;0.52;;;13.40;99.90;;;;;;5091952;28;20466;-77
2022/05/30 07:52:33;;;;;;;2.55;0.20;;;13.30;99.90;;;;;;5092850;28;20123;-77
2022/05/30 07:54:59;;;;;;;2.40;0.22;;;13.20;99.90;;;;;;5093479;28;20465;-77
2022/05/30 08:00:11;;;;;;;0.30;0.10;;;13.20;99.90;;;;;;5096620;28;20388;-77
2022/05/30 08:02:41;;;;;;;1.05;0.10;;;13.20;99.90;;;;;;5097263;28;20066;-77
2022/05/30 08:05:10;;;;;;;1.33;0.20;;;13.20;99.90;;;;;;5097064;28;20044;-77
2022/05/30 08:07:36;;;;;;;2.83;0.20;;;13.20;99.90;;;;;;5096869;28;20091;-77
2022/05/30 08:10:04;;;;;;;2.85;0.15;;;13.10;99.90;;;;;;5096276;28;20146;-75
2022/05/30 08:12:31;;;;;;;2.97;0.20;;;13.20;99.90;;;;;;5078755;28;20063;-76
2022/05/30 08:14:57;;;;;;;0.95;0.20;;;13.30;99.90;;;;;;5077990;28;20036;-77
2022/05/30 08:17:23;;;;;;;1.70;0.25;;;13.40;99.90;;;;;;5095682;28;20130;-76
2022/05/30 08:19:49;;;;;;;1.75;0.20;;;13.60;99.90;;;;;;5079099;28;20127;-75
2022/05/30 08:22:15;;;;;;;1.77;0.30;;;13.60;99.90;;;;;;5095464;28;20046;-75
2022/05/30 08:24:44;;;;;;;2.45;0.30;;;13.50;99.90;;;;;;5096393;28;20046;-76
2022/05/30 08:27:11;;;;;;;3.50;0.35;;;13.60;99.90;;;;;;5079464;28;20105;-77
2022/05/30 08:29:36;;;;;;;2.33;0.30;;;13.90;99.90;;;;;;5112211;28;20452;-76
2022/05/30 08:32:04;;;;;;;2.70;0.40;;;14.00;99.90;;;;;;5095184;28;20100;-76
2022/05/30 08:34:31;;;;;;;1.83;0.20;;;14.30;99.90;;;;;;5096550;28;20040;-78
2022/05/30 08:36:59;;;;;;;;;;;14.40;99.90;;;;;;5078738;28;20058;-76
2022/05/30 08:42:09;;;;;;;1.10;0.20;;;14.40;99.90;;;;;;5095707;28;20048;-78
2022/05/30 08:44:35;;;;;;;1.73;0.30;;;14.60;99.90;;;;;;5096349;28;20047;-76
2022/05/30 08:47:11;;;;;;;7.93;1.33;;;14.50;99.90;;;;;;5078499;28;20462;-75
2022/05/30 08:49:47;;;;;;;6.82;0.60;;;14.10;99.90;;;;;;5095711;28;20051;-77
2022/05/30 08:52:38;;;;;;;2.05;0.13;;;13.90;99.90;;;;;;5096466;28;20040;-75
2022/05/30 08:55:10;;;;;;;1.77;0.20;;;13.70;99.70;;;;;;5094313;28;20044;-77
2022/05/30 08:57:58;;;;;;;3.92;0.40;;;13.90;99.90;;;;;;5096584;28;20383;-76
2022/05/30 09:00:39;;;;;;;7.32;1.10;;;13.90;99.90;;;;;;5094456;28;20101;-77
2022/05/30 09:03:23;;;;;;;3.97;0.50;;;14.30;99.20;;;;;;5095619;28;20040;-77
2022/05/30 09:05:57;;;;;;;3.40;0.20;;;14.20;99.30;;;;;;5096328;28;20051;-75
2022/05/30 09:08:32;;;;;;;2.15;0.30;;;14.50;98.70;;;;;;5077837;28;20074;-78
2022/05/30 09:11:03;;;;;;;2.78;0.20;;;14.60;99.00;;;;;;5095151;28;20364;-76
2022/05/30 09:13:43;;;;;;;4.90;0.20;;;14.60;99.40;;;;;;5094907;28;20140;-77
2022/05/30 09:16:21;;;;;;;2.22;0.20;;;14.70;97.60;;;;;;5094114;28;20055;-78
2022/05/30 09:18:49;;;;;;;5.05;0.20;;;14.90;98.50;;;;;;5095114;28;20052;-76
2022/05/30 09:21:17;;;;;;;1.70;0.30;;;15.30;99.40;;;;;;5077348;28;20048;-77
2022/05/30 09:23:43;;;;;;;1.60;0.25;;;15.40;98.00;;;;;;5077679;28;20048;-76
2022/05/30 09:26:18;;;;;;;1.20;0.20;;;15.50;97.80;;;;;;5094936;28;20496;-77
2022/05/30 09:28:46;;;;;;;2.05;0.10;;;15.30;95.40;;;;;;5093830;28;20127;-77
2022/05/30 09:31:21;;;;;;;3.33;0.20;;;15.20;93.80;;;;;;5093821;28;20109;-78
2022/05/30 09:33:56;;;;;;;1.65;0.20;;;15.60;95.10;;;;;;5094589;28;20047;-78
2022/05/30 09:36:27;;;;;;;3.60;0.20;;;15.70;94.00;;;;;;5093378;28;20454;-78
2022/05/30 09:38:59;;;;;;;12.13;8.82;;;15.10;91.00;;;;;;5094863;28;20047;-78
2022/05/30 09:41:46;;;;;;;30.95;27.55;;;15.30;93.40;;;;;;5095026;28;20499;-78
2022/05/30 09:44:18;;;;;;;2.90;0.20;;;15.60;93.80;;;;;;5094725;28;20127;-77
2022/05/30 09:47:04;;;;;;;2.47;0.50;;;15.50;92.20;;;;;;5094582;28;20469;-76
2022/05/30 09:49:44;;;;;;;1.40;0.60;;;15.80;93.80;;;;;;5094258;28;20112;-76
2022/05/30 09:52:37;;;;;;;0.73;0.20;;;15.90;94.00;;;;;;5094149;28;20139;-78
2022/05/30 09:55:21;;;;;;;2.15;0.20;;;15.60;90.50;;;;;;5092128;28;20044;-76
2022/05/30 09:57:48;;;;;;;1.95;0.30;;;15.30;92.70;;;;;;5094637;28;20114;-77
2022/05/30 10:00:19;;;;;;;5.47;0.30;;;15.30;93.70;;;;;;5093242;28;20440;-77
2022/05/30 10:02:47;;;;;;;2.75;0.40;;;14.70;94.90;;;;;;5075925;28;20455;-77
2022/05/30 10:05:18;;;;;;;1.73;0.32;;;14.90;95.50;;;;;;5093184;28;20043;-77
2022/05/30 10:07:54;;;;;;;5.10;0.32;;;14.80;96.30;;;;;;5094994;28;20051;-77
2022/05/30 10:10:54;;;;;;;3.63;0.40;;;15.00;96.40;;;;;;5093052;28;20127;-76
2022/05/30 10:13:42;;;;;;;2.10;0.30;;;15.00;96.20;;;;;;5060462;28;20088;-79
2022/05/30 10:16:13;;;;;;;2.58;0.30;;;14.90;96.00;;;;;;5094126;28;20048;-76
2022/05/30 10:18:59;;;;;;;1.85;0.30;;;14.90;95.50;;;;;;5094304;28;20044;-79
2022/05/30 10:30:51;;;;;;;4.97;0.40;;;15.80;94.50;;;;;;5093616;28;20070;-80
2022/05/30 10:33:44;;;;;;;3.33;0.30;;;16.00;94.70;;;;;;5092606;28;20075;-78
2022/05/30 10:36:15;;;;;;;4.28;0.40;;;15.60;94.20;;;;;;5093931;28;20040;-77
2022/05/30 10:39:18;;;;;;;2.03;0.30;;;15.50;94.20;;;;;;5093176;28;20495;-76
2022/05/30 10:41:56;;;;;;;2.22;0.20;;;15.70;93.80;;;;;;5093678;28;20577;-75
2022/05/30 10:44:35;;;;;;;1.88;0.20;;;16.00;93.60;;;;;;5092397;28;20052;-76
2022/05/30 10:47:15;;;;;;;0.40;0.20;;;16.10;94.20;;;;;;5094238;28;20131;-79
2022/05/30 10:49:48;;;;;;;1.25;0.20;;;16.20;93.20;;;;;;5093858;28;20086;-78
2022/05/30 10:52:31;;;;;;;0.93;0.13;;;16.20;93.30;;;;;;5094095;28;20122;-77
2022/05/30 10:55:06;;;;;;;1.75;0.35;;;16.00;92.40;;;;;;5094481;28;20040;-79
2022/05/30 10:57:44;;;;;;;1.70;0.30;;;16.10;90.50;;;;;;5092846;28;20047;-76
2022/05/30 11:00:19;;;;;;;3.13;0.32;;;16.00;92.70;;;;;;5094497;28;20445;-76
2022/05/30 11:03:24;;;;;;;2.20;0.30;;;15.60;92.80;;;;;;5096331;28;20052;-77
2022/05/30 11:05:55;;;;;;;5.13;0.30;;;15.50;93.00;;;;;;5095715;28;20044;-79
2022/05/30 11:08:21;;;;;;;2.70;0.30;;;15.50;93.70;;;;;;5094544;28;20510;-79
2022/05/30 11:11:03;;;;;;;1.70;0.40;;;15.20;93.80;;;;;;5095979;28;20044;-74
2022/05/30 11:13:56;;;;;;;1.02;0.25;;;15.50;93.90;;;;;;5095789;28;20067;-76
2022/05/30 11:16:33;;;;;;;5.25;0.40;;;15.60;93.90;;;;;;5095897;28;20056;-76
2022/05/30 11:19:21;;;;;;;4.28;0.40;;;15.60;94.10;;;;;;5094377;28;20054;-77
2022/05/30 11:22:03;;;;;;;5.05;0.60;;;15.70;93.80;;;;;;5094498;28;20055;-76
2022/05/30 11:24:31;;;;;;;4.05;0.38;;;15.90;93.90;;;;;;5094300;28;20048;-78
2022/05/30 11:27:17;;;;;;;2.20;0.30;;;15.90;93.30;;;;;;5094001;28;20127;-76
2022/05/30 11:29:58;;;;;;;3.40;0.30;;;16.30;93.20;;;;;;5096190;28;20056;-76
2022/05/30 11:32:27;;;;;;;2.53;0.30;;;16.40;92.40;;;;;;5095640;28;20044;-77
2022/05/30 11:35:08;;;;;;;1.50;0.20;;;16.60;92.60;;;;;;5093744;28;20040;-78
2022/05/30 11:37:57;;;;;;;2.05;0.30;;;16.90;91.20;;;;;;5094613;28;20105;-78
2022/05/30 11:40:38;;;;;;;2.95;0.43;;;16.90;90.50;;;;;;5094611;28;20048;-79
2022/05/30 11:43:24;;;;;;;2.75;0.40;;;17.20;91.30;;;;;;5095426;28;20044;-77
2022/05/30 11:46:12;;;;;;;1.83;0.30;;;17.40;91.00;;;;;;5077516;28;20048;-77
2022/05/30 11:48:58;;;;;;;1.88;0.50;;;17.40;90.90;;;;;;5077541;28;20504;-79
2022/05/30 11:51:43;;;;;;;0.73;0.30;;;16.70;90.40;;;;;;5096371;28;20180;-77
2022/05/30 11:54:35;;;;;;;2.90;0.30;;;16.90;90.80;;;;;;5097826;28;20051;-78
2022/05/30 11:57:24;;;;;;;3.70;0.30;;;16.90;90.80;;;;;;5096691;28;20130;-79
2022/05/30 11:59:52;;;;;;;1.40;0.30;;;16.90;90.00;;;;;;5087322;28;20056;-78
2022/05/30 12:02:54;;;;;;;2.50;0.20;;;16.60;90.30;;;;;;5097191;28;20088;-75
2022/05/30 12:05:45;;;;;;;3.35;0.40;;;16.70;91.20;;;;;;5068956;28;20052;-76
2022/05/30 12:08:32;;;;;;;2.17;0.22;;;16.40;90.70;;;;;;5098728;28;20040;-78
2022/05/30 12:11:34;;;;;;;2.45;0.20;;;16.00;90.20;;;;;;5097199;28;20043;-78
2022/05/30 12:14:37;;;;;;;2.42;0.20;;;16.00;88.60;;;;;;5084169;28;20052;-78
2022/05/30 12:17:21;;;;;;;2.40;0.20;;;15.80;87.50;;;;;;5111893;28;20446;-79
2022/05/30 12:25:54;;;;;;;1.77;0.20;;;16.10;90.20;;;;;;5096551;28;20051;-78
2022/05/30 12:28:32;;;;;;;2.28;0.20;;;16.20;90.30;;;;;;5079012;28;20051;-76
2022/05/30 12:31:02;;;;;;;2.80;0.20;;;16.30;90.20;;;;;;5096369;28;20048;-77
2022/05/30 12:33:31;;;;;;;2.40;0.28;;;16.20;88.90;;;;;;5098050;28;20040;-78
2022/05/30 12:36:23;;;;;;;2.45;0.30;;;16.40;87.80;;;;;;5099255;28;20044;-79
2022/05/30 12:39:37;;;;;;;2.05;0.30;;;16.50;83.30;;;;;;5094146;28;20142;-77
2022/05/30 12:42:08;;;;;;;1.02;0.30;;;16.60;84.00;;;;;;5084974;28;20056;-78
2022/05/30 12:44:54;;;;;;;2.20;0.22;;;16.90;87.70;;;;;;5099386;28;20115;-77
2022/05/30 12:47:30;;;;;;;2.55;0.30;;;16.40;85.10;;;;;;5101664;28;20517;-77
2022/05/30 12:50:32;;;;;;;0.63;0.20;;;16.20;83.90;;;;;;5101417;28;20048;-77
2022/05/30 12:53:01;;;;;;;0.32;0.10;;;16.70;87.10;;;;;;5099110;28;20290;-76
2022/05/30 12:55:34;;;;;;;1.30;0.10;;;16.80;84.60;;;;;;5087637;28;20055;-78
2022/05/30 12:58:00;;;;;;;1.38;0.20;;;16.70;82.80;;;;;;5107881;28;20052;-78
2022/05/30 13:00:41;;;;;;;2.05;0.20;;;17.00;84.40;;;;;;5106848;28;20048;-75
2022/05/30 13:03:24;;;;;;;3.22;0.30;;;17.00;84.30;;;;;;5106536;28;20051;-77
2022/05/30 13:06:01;;;;;;;3.08;0.30;;;17.20;85.40;;;;;;5104612;28;20048;-77
2022/05/30 13:08:52;;;;;;;4.82;0.32;;;17.30;82.10;;;;;;5103293;28;20067;-75
2022/05/30 13:11:33;;;;;;;2.15;0.28;;;16.90;81.70;;;;;;5100612;28;20077;-78
2022/05/30 13:14:17;;;;;;;2.08;0.20;;;17.40;82.40;;;;;;5099056;28;20090;-78
2022/05/30 13:16:47;;;;;;;0.57;0.13;;;17.30;82.20;;;;;;5082468;28;20104;-77
2022/05/30 13:19:15;;;;;;;1.35;0.30;;;17.40;82.00;;;;;;5099770;28;20147;-78
2022/05/30 13:21:48;;;;;;;3.55;0.30;;;17.50;80.10;;;;;;5100058;28;20048;-76
2022/05/30 13:24:36;;;;;;;1.75;0.30;;;17.40;79.30;;;;;;5105224;28;20048;-78
2022/05/30 13:27:02;;;;;;;1.45;0.30;;;17.60;80.40;;;;;;5105811;28;20055;-78
2022/05/30 13:29:38;;;;;;;1.42;0.28;;;17.50;80.40;;;;;;5102493;28;20088;-74
2022/05/30 13:32:08;;;;;;;1.27;0.30;;;17.60;80.70;;;;;;5102792;28;20389;-77
2022/05/30 13:34:35;;;;;;;1.58;0.30;;;16.80;80.80;;;;;;5099882;28;20063;-77
2022/05/30 13:37:03;;;;;;;4.80;0.43;;;16.80;83.00;;;;;;5098842;28;20113;-75
2022/05/30 13:39:31;;;;;;;3.88;0.30;;;16.80;84.30;;;;;;5096172;28;20361;-74
2022/05/30 13:41:57;;;;;;;3.15;0.40;;;16.70;84.60;;;;;;5096595;28;20497;-77